Time;durP1;ratioP1;P1;durP2;ratioP2;P2;SDS_P1;SDS_P2;PMS_P1;PMS_P2;Temp;Humidity;BMP_temperature;BMP_pressure;BME280_temperature;BME280_humidity;BME280_pressure;Samples;Min_cycle;Max_cycle;Signal;HPM_P1;HPM_P2
2022/05/02 00:00:59;;;;;;;0.80;0.70;;;5.70;99.90;;;;;;5137878;27;20047;-75
2022/05/02 00:03:25;;;;;;;0.80;0.73;;;5.60;99.90;;;;;;5151074;27;20072;-75
2022/05/02 00:05:51;;;;;;;1.20;0.90;;;5.60;99.90;;;;;;5150398;27;20070;-75
2022/05/02 00:08:16;;;;;;;1.27;0.73;;;5.50;99.90;;;;;;5150797;27;20123;-75
2022/05/02 00:10:43;;;;;;;1.02;0.80;;;5.50;99.90;;;;;;5151010;27;20047;-75
2022/05/02 00:13:09;;;;;;;1.70;0.80;;;5.40;99.90;;;;;;5151175;27;20565;-76
2022/05/02 00:15:37;;;;;;;1.10;0.93;;;5.30;99.90;;;;;;5150287;27;20080;-75
2022/05/02 00:18:04;;;;;;;1.10;1.00;;;5.30;99.90;;;;;;5151187;27;20057;-76
2022/05/02 00:20:32;;;;;;;1.15;0.82;;;5.20;99.90;;;;;;5151049;27;20038;-75
2022/05/02 00:23:00;;;;;;;1.55;1.00;;;5.20;99.90;;;;;;5150618;27;20072;-75
2022/05/02 00:25:26;;;;;;;0.68;0.68;;;5.20;99.90;;;;;;5150276;27;20598;-75
2022/05/02 00:27:52;;;;;;;2.38;1.23;;;5.20;99.90;;;;;;5150584;27;20042;-75
2022/05/02 00:30:19;;;;;;;1.20;0.90;;;5.10;99.90;;;;;;5150515;27;20397;-75
2022/05/02 00:32:45;;;;;;;1.13;0.90;;;5.10;99.90;;;;;;5154237;27;20027;-75
2022/05/02 00:35:11;;;;;;;0.95;0.80;;;5.10;99.90;;;;;;5136920;27;20452;-75
2022/05/02 00:37:38;;;;;;;0.95;0.70;;;5.10;99.90;;;;;;5154488;27;20392;-74
2022/05/02 00:40:09;;;;;;;1.35;0.90;;;5.10;99.90;;;;;;5137044;27;20095;-75
2022/05/02 00:42:35;;;;;;;0.75;0.75;;;5.10;99.90;;;;;;5154277;27;20078;-75
2022/05/02 00:45:01;;;;;;;1.30;0.90;;;5.10;99.90;;;;;;5153697;27;20075;-75
2022/05/02 00:47:27;;;;;;;2.78;1.40;;;5.10;99.90;;;;;;5153964;27;20039;-74
2022/05/02 00:49:53;;;;;;;3.05;1.60;;;5.20;99.90;;;;;;5142627;27;20502;-74
2022/05/02 00:52:20;;;;;;;1.58;1.27;;;5.40;99.90;;;;;;5133244;27;20070;-75
2022/05/02 00:54:46;;;;;;;2.05;1.33;;;5.40;99.90;;;;;;5132678;27;20043;-74
2022/05/02 00:57:13;;;;;;;2.08;1.10;;;5.50;99.90;;;;;;5150707;27;20601;-74
2022/05/02 00:59:40;;;;;;;2.60;1.60;;;5.60;99.90;;;;;;5153945;27;20366;-74
2022/05/02 01:02:06;;;;;;;;;;;5.50;99.90;;;;;;5137166;27;20053;-74
2022/05/02 01:04:32;;;;;;;4.43;2.08;;;5.50;99.90;;;;;;5132833;27;19923;-74
2022/05/02 01:07:11;;;;;;;2.47;1.70;;;5.50;99.90;;;;;;5136386;27;20095;-75
2022/05/02 01:09:38;;;;;;;1.40;1.25;;;5.40;99.90;;;;;;5151684;27;20128;-74
2022/05/02 01:12:06;;;;;;;1.55;1.10;;;5.40;99.90;;;;;;5153695;27;20039;-74
2022/05/02 01:14:34;;;;;;;1.20;1.10;;;5.30;99.90;;;;;;5154006;27;20121;-74
2022/05/02 01:17:00;;;;;;;2.20;1.33;;;5.20;99.90;;;;;;5153554;27;20490;-74
2022/05/02 01:19:26;;;;;;;1.50;1.20;;;5.20;99.90;;;;;;5153467;27;20078;-74
2022/05/02 01:21:51;;;;;;;1.52;1.42;;;5.10;99.90;;;;;;5136112;27;20082;-75
2022/05/02 01:24:17;;;;;;;2.25;1.40;;;5.20;99.90;;;;;;5088872;27;20047;-74
2022/05/02 01:26:43;;;;;;;1.23;1.10;;;5.20;99.90;;;;;;5115512;27;20043;-74
2022/05/02 01:29:08;;;;;;;1.80;1.30;;;5.30;99.90;;;;;;5133331;27;20043;-74
2022/05/02 01:31:34;;;;;;;1.52;1.30;;;5.20;99.90;;;;;;5132785;27;20088;-74
2022/05/02 01:34:00;;;;;;;1.35;1.23;;;5.20;99.90;;;;;;5133009;27;20039;-75
2022/05/02 01:36:26;;;;;;;1.27;0.95;;;5.10;99.90;;;;;;5115843;27;20043;-74
2022/05/02 01:38:52;;;;;;;;;;;5.10;99.90;;;;;;5135903;27;20039;-74
2022/05/02 01:41:18;;;;;;;1.65;1.10;;;5.00;99.90;;;;;;5129082;27;19969;-74
2022/05/02 01:43:45;;;;;;;1.45;0.93;;;4.90;99.90;;;;;;5145818;27;20060;-74
2022/05/02 01:46:12;;;;;;;1.10;1.00;;;4.90;99.90;;;;;;5154590;27;20043;-74
2022/05/02 01:48:38;;;;;;;1.23;0.90;;;4.90;99.90;;;;;;5165854;27;20046;-74
2022/05/02 01:51:04;;;;;;;1.10;0.90;;;4.90;99.90;;;;;;5153375;27;20035;-74
2022/05/02 01:53:30;;;;;;;0.90;0.75;;;4.80;99.90;;;;;;5153182;27;20046;-74
2022/05/02 01:55:56;;;;;;;1.23;0.90;;;4.80;99.90;;;;;;5135676;27;20050;-74
2022/05/02 01:58:22;;;;;;;1.05;0.80;;;4.80;99.90;;;;;;5136341;27;20042;-75
2022/05/02 02:00:48;;;;;;;0.77;0.70;;;4.80;99.90;;;;;;5152230;27;20076;-75
2022/05/02 02:03:14;;;;;;;0.60;0.60;;;4.80;99.90;;;;;;5119334;27;20041;-75
2022/05/02 02:05:48;;;;;;;1.00;0.90;;;4.80;99.90;;;;;;5134555;27;20675;-75
2022/05/02 02:08:18;;;;;;;0.70;0.70;;;4.80;99.90;;;;;;5152670;27;20074;-75
2022/05/02 02:10:44;;;;;;;0.77;0.75;;;4.80;99.90;;;;;;5151573;27;20046;-75
2022/05/02 02:13:14;;;;;;;1.00;0.80;;;4.70;99.90;;;;;;5152805;27;20141;-74
2022/05/02 02:15:40;;;;;;;0.95;0.70;;;4.70;99.90;;;;;;5118366;27;20039;-74
2022/05/02 02:18:06;;;;;;;1.60;1.10;;;4.70;99.90;;;;;;5152671;27;20477;-75
2022/05/02 02:20:33;;;;;;;1.73;1.23;;;4.70;99.90;;;;;;5152781;27;20456;-75
2022/05/02 02:22:59;;;;;;;1.65;1.40;;;4.70;99.90;;;;;;5152575;27;20077;-75
2022/05/02 02:25:25;;;;;;;1.70;1.40;;;4.80;99.90;;;;;;5152327;27;20050;-74
2022/05/02 02:27:52;;;;;;;2.20;1.50;;;4.80;99.90;;;;;;5152259;27;20038;-74
2022/05/02 02:30:19;;;;;;;1.13;1.00;;;4.80;99.90;;;;;;5135005;27;20042;-74
2022/05/02 02:32:44;;;;;;;;;;;4.80;99.90;;;;;;5133695;27;20533;-74
2022/05/02 02:35:10;;;;;;;1.52;1.08;;;4.70;99.90;;;;;;5131923;27;20007;-74
2022/05/02 02:37:36;;;;;;;0.85;0.73;;;4.70;99.90;;;;;;5133124;27;20039;-74
2022/05/02 02:40:03;;;;;;;1.20;0.82;;;4.60;99.90;;;;;;5152380;27;20082;-74
2022/05/02 02:42:28;;;;;;;0.98;0.88;;;4.50;99.90;;;;;;5152398;27;20054;-74
2022/05/02 02:44:54;;;;;;;0.93;0.80;;;4.50;99.90;;;;;;5134241;27;20405;-74
2022/05/02 02:47:20;;;;;;;1.52;1.00;;;4.40;99.90;;;;;;5151718;27;20283;-75
2022/05/02 02:49:45;;;;;;;0.60;0.60;;;4.30;99.90;;;;;;5132051;27;20039;-75
2022/05/02 02:52:11;;;;;;;0.93;0.80;;;4.30;99.90;;;;;;5130980;27;20039;-74
2022/05/02 02:54:37;;;;;;;2.30;1.08;;;4.20;99.90;;;;;;5113723;27;20039;-74
2022/05/02 02:57:03;;;;;;;1.45;1.15;;;4.20;99.90;;;;;;5113660;27;20039;-75
2022/05/02 02:59:28;;;;;;;1.30;1.10;;;4.10;99.90;;;;;;5131063;27;20042;-74
2022/05/02 03:01:56;;;;;;;1.25;1.00;;;4.10;99.90;;;;;;5128177;27;20788;-74
2022/05/02 03:07:08;;;;;;;1.27;0.95;;;4.00;99.90;;;;;;5130542;27;20054;-74
2022/05/02 03:09:34;;;;;;;1.55;1.15;;;3.90;99.90;;;;;;5130685;27;20047;-75
2022/05/02 03:12:02;;;;;;;1.67;1.00;;;3.90;99.90;;;;;;5130922;27;20062;-75
2022/05/02 03:14:27;;;;;;;1.00;0.90;;;3.90;99.90;;;;;;5130602;27;20050;-74
2022/05/02 03:16:53;;;;;;;1.23;0.93;;;3.90;99.90;;;;;;5130795;27;20035;-74
2022/05/02 03:19:19;;;;;;;1.43;0.70;;;3.90;99.90;;;;;;5130533;27;20308;-74
2022/05/02 03:21:44;;;;;;;0.90;0.80;;;3.90;99.90;;;;;;5130957;27;20042;-74
2022/05/02 03:24:10;;;;;;;1.00;0.80;;;3.80;99.90;;;;;;5130605;27;20296;-74
2022/05/02 03:26:35;;;;;;;1.30;1.07;;;3.80;99.90;;;;;;5147052;27;20284;-74
2022/05/02 03:29:01;;;;;;;0.80;0.70;;;3.80;99.90;;;;;;5150859;27;20039;-74
2022/05/02 03:31:27;;;;;;;0.73;0.70;;;3.80;99.90;;;;;;5151320;27;20117;-74
2022/05/02 03:33:53;;;;;;;1.48;1.00;;;3.70;99.90;;;;;;5133880;27;20031;-74
2022/05/02 03:36:18;;;;;;;1.20;0.90;;;3.70;99.90;;;;;;5151154;27;20202;-74
2022/05/02 03:38:44;;;;;;;1.23;1.00;;;3.70;99.90;;;;;;5133160;27;20663;-74
2022/05/02 03:41:10;;;;;;;1.05;0.95;;;3.60;99.90;;;;;;5133603;27;20125;-74
2022/05/02 03:43:36;;;;;;;1.10;0.98;;;3.60;99.90;;;;;;5133793;27;20038;-75
2022/05/02 03:46:02;;;;;;;1.13;1.00;;;3.60;99.90;;;;;;5150559;27;20063;-75
2022/05/02 03:48:28;;;;;;;1.52;1.10;;;3.60;99.90;;;;;;5151228;27;20064;-75
2022/05/02 03:50:54;;;;;;;1.08;0.98;;;3.60;99.90;;;;;;5152408;27;20112;-74
2022/05/02 03:53:20;;;;;;;1.95;1.10;;;3.50;99.90;;;;;;5133759;27;20043;-75
2022/05/02 03:55:46;;;;;;;0.80;0.77;;;3.50;99.90;;;;;;5148145;27;20055;-75
2022/05/02 03:58:13;;;;;;;0.95;0.80;;;3.50;99.90;;;;;;5112969;28;20043;-75
2022/05/02 04:00:39;;;;;;;;;;;3.50;99.90;;;;;;5117007;27;20042;-75
2022/05/02 04:03:04;;;;;;;1.65;1.00;;;3.40;99.90;;;;;;5150019;27;20293;-75
2022/05/02 04:05:30;;;;;;;1.10;0.82;;;3.40;99.90;;;;;;5149867;27;20050;-74
2022/05/02 04:07:56;;;;;;;1.23;1.00;;;3.40;99.90;;;;;;5154986;27;20043;-75
2022/05/02 04:10:21;;;;;;;1.10;0.90;;;3.40;99.90;;;;;;5154211;27;20346;-75
2022/05/02 04:12:47;;;;;;;1.70;1.10;;;3.40;99.90;;;;;;5117517;27;20035;-75
2022/05/02 04:15:13;;;;;;;1.25;0.90;;;3.40;99.90;;;;;;5126678;27;20485;-75
2022/05/02 04:17:39;;;;;;;1.30;1.05;;;3.40;99.90;;;;;;5137889;27;20091;-75
2022/05/02 04:20:07;;;;;;;2.00;1.75;;;3.40;99.90;;;;;;5155047;27;20051;-75
2022/05/02 04:22:34;;;;;;;2.75;1.90;;;3.50;99.90;;;;;;5137553;27;20504;-75
2022/05/02 04:25:00;;;;;;;2.15;1.70;;;3.50;99.90;;;;;;5155367;27;20129;-75
2022/05/02 04:27:26;;;;;;;1.77;1.48;;;3.60;99.90;;;;;;5120387;27;20564;-75
2022/05/02 04:29:52;;;;;;;2.00;1.48;;;3.60;99.90;;;;;;5153464;27;20042;-75
2022/05/02 04:32:17;;;;;;;1.92;1.15;;;3.50;99.90;;;;;;5137054;27;20046;-75
2022/05/02 04:34:43;;;;;;;1.83;1.30;;;3.60;99.90;;;;;;5137379;27;20035;-74
2022/05/02 04:37:09;;;;;;;1.75;1.35;;;3.60;99.90;;;;;;5137005;27;20284;-74
2022/05/02 04:39:35;;;;;;;2.00;1.42;;;3.60;99.90;;;;;;5154276;27;20459;-75
2022/05/02 04:42:00;;;;;;;2.30;2.10;;;3.70;99.90;;;;;;5153928;27;20090;-74
2022/05/02 04:44:26;;;;;;;2.50;1.98;;;3.80;99.90;;;;;;5136281;27;20097;-74
2022/05/02 04:46:52;;;;;;;2.38;1.60;;;3.90;99.90;;;;;;5153499;27;20087;-74
2022/05/02 04:49:17;;;;;;;1.70;1.58;;;3.90;99.90;;;;;;5126847;27;20043;-74
2022/05/02 04:51:43;;;;;;;2.00;1.80;;;3.90;99.90;;;;;;5135016;27;20061;-74
2022/05/02 04:54:09;;;;;;;2.73;2.03;;;4.00;99.90;;;;;;5115243;27;20818;-74
2022/05/02 04:56:34;;;;;;;3.65;2.35;;;4.10;99.90;;;;;;5132157;27;20033;-74
2022/05/02 04:59:00;;;;;;;2.73;2.17;;;4.10;99.90;;;;;;5122293;27;20039;-74
2022/05/02 05:01:26;;;;;;;4.97;2.70;;;4.20;99.90;;;;;;5142731;27;20763;-74
2022/05/02 05:03:51;;;;;;;3.92;2.78;;;4.40;99.90;;;;;;5135945;27;20129;-74
2022/05/02 05:06:17;;;;;;;3.17;2.60;;;4.50;99.90;;;;;;5148831;27;20114;-74
2022/05/02 05:08:43;;;;;;;2.45;1.92;;;4.50;99.90;;;;;;5133692;27;20439;-74
2022/05/02 05:11:18;;;;;;;2.95;2.33;;;4.60;99.90;;;;;;5131978;27;20171;-74
2022/05/02 05:17:21;;;;;;;5.05;4.25;;;4.80;99.90;;;;;;5109333;27;20057;-75
2022/05/02 05:20:03;;;;;;;4.65;3.88;;;4.90;99.90;;;;;;5133069;27;20441;-74
2022/05/02 05:22:59;;;;;;;5.10;4.00;;;5.10;99.90;;;;;;5133175;27;20145;-74
2022/05/02 05:26:08;;;;;;;3.80;3.15;;;5.20;99.90;;;;;;5134592;27;20288;-74
2022/05/02 05:28:53;;;;;;;5.30;4.20;;;5.30;99.90;;;;;;5133814;27;20493;-74
2022/05/02 05:31:58;;;;;;;4.13;2.97;;;5.30;99.90;;;;;;5132744;27;20091;-75
2022/05/02 05:34:56;;;;;;;3.63;2.50;;;5.40;99.90;;;;;;5133911;27;20039;-75
2022/05/02 05:37:31;;;;;;;;;;;5.50;99.90;;;;;;5146618;27;20050;-73
2022/05/02 05:40:21;;;;;;;4.20;3.33;;;5.70;99.90;;;;;;5140722;27;19915;-74
2022/05/02 05:43:19;;;;;;;3.72;2.78;;;5.80;99.90;;;;;;5135195;27;20043;-74
2022/05/02 05:46:23;;;;;;;2.90;2.03;;;6.00;99.90;;;;;;5134251;27;20051;-73
2022/05/02 05:49:10;;;;;;;4.72;3.35;;;6.10;99.90;;;;;;5133514;27;20125;-73
2022/05/02 05:51:48;;;;;;;5.07;3.50;;;6.20;99.90;;;;;;5133118;27;20054;-73
2022/05/02 05:54:32;;;;;;;5.55;4.65;;;6.30;99.90;;;;;;5135187;27;20055;-73
2022/05/02 05:57:16;;;;;;;6.55;4.32;;;6.30;99.90;;;;;;5122694;27;20259;-75
2022/05/02 06:00:06;;;;;;;6.63;4.78;;;6.50;99.90;;;;;;5136655;27;20819;-74
2022/05/02 06:02:50;;;;;;;3.97;3.40;;;6.80;99.90;;;;;;5133337;27;20061;-74
2022/05/02 06:05:17;;;;;;;3.33;2.88;;;7.00;99.90;;;;;;5141830;27;20514;-75
2022/05/02 06:07:44;;;;;;;2.90;2.60;;;7.30;99.90;;;;;;5121018;27;20429;-74
2022/05/02 06:10:10;;;;;;;2.50;2.13;;;7.80;99.90;;;;;;5138542;27;20039;-75
2022/05/02 06:12:38;;;;;;;3.05;2.40;;;8.50;99.90;;;;;;5119956;27;20447;-75
2022/05/02 06:20:39;;;;;;;4.47;3.10;;;10.10;99.90;;;;;;5141877;27;20099;-75
2022/05/02 06:23:10;;;;;;;4.47;3.78;;;10.50;99.90;;;;;;5139131;27;20038;-74
2022/05/02 06:25:37;;;;;;;4.15;3.25;;;11.00;99.90;;;;;;5137776;27;20412;-75
2022/05/02 06:28:05;;;;;;;5.63;4.57;;;11.20;99.90;;;;;;5134322;27;20046;-74
2022/05/02 06:30:33;;;;;;;5.60;4.53;;;11.50;99.90;;;;;;5133385;27;20080;-74
2022/05/02 06:33:05;;;;;;;4.90;3.55;;;11.70;99.90;;;;;;5147617;27;20493;-74
2022/05/02 06:35:58;;;;;;;4.60;3.33;;;11.60;99.90;;;;;;5141271;27;20042;-74
2022/05/02 06:38:43;;;;;;;3.67;3.00;;;11.50;99.90;;;;;;5123644;27;20054;-73
2022/05/02 06:41:46;;;;;;;5.50;4.30;;;11.50;99.90;;;;;;5149824;27;20042;-74
2022/05/02 06:44:18;;;;;;;5.78;4.38;;;11.40;99.90;;;;;;5140819;27;20130;-75
2022/05/02 06:47:10;;;;;;;5.05;4.10;;;11.60;99.90;;;;;;5141225;27;20039;-74
2022/05/02 06:49:39;;;;;;;5.53;4.70;;;11.60;99.90;;;;;;5145918;27;20245;-74
2022/05/02 06:52:09;;;;;;;6.22;4.82;;;11.90;99.90;;;;;;5136142;27;20034;-73
2022/05/02 06:54:44;;;;;;;5.45;4.20;;;12.30;99.90;;;;;;5133442;27;20046;-73
2022/05/02 06:57:27;;;;;;;4.78;4.20;;;12.60;99.90;;;;;;5140429;27;20473;-73
2022/05/02 07:00:06;;;;;;;4.93;4.43;;;12.80;99.90;;;;;;5140802;27;20062;-73
2022/05/02 07:02:47;;;;;;;5.13;3.50;;;12.90;99.90;;;;;;5137902;27;20049;-74
2022/05/02 07:05:27;;;;;;;3.50;3.13;;;13.20;99.90;;;;;;5139150;27;20031;-75
2022/05/02 07:08:06;;;;;;;4.35;2.53;;;13.50;99.90;;;;;;5133119;27;20034;-74
2022/05/02 07:10:36;;;;;;;5.20;3.83;;;13.60;99.90;;;;;;5137470;27;20551;-74
2022/05/02 07:13:24;;;;;;;3.92;3.53;;;13.70;99.90;;;;;;5136049;27;20409;-74
2022/05/02 07:16:04;;;;;;;4.15;3.60;;;13.80;99.90;;;;;;5144770;27;20039;-74
2022/05/02 07:18:46;;;;;;;4.68;3.50;;;14.00;99.90;;;;;;5141476;27;20054;-74
2022/05/02 07:21:52;;;;;;;5.63;4.40;;;14.10;99.90;;;;;;5139878;27;20550;-75
2022/05/02 07:24:24;;;;;;;5.72;4.10;;;14.00;99.90;;;;;;5134421;27;20050;-74
2022/05/02 07:27:01;;;;;;;4.18;3.38;;;14.00;99.90;;;;;;5140673;27;20092;-76
2022/05/02 07:29:29;;;;;;;5.43;3.50;;;14.10;99.90;;;;;;5135521;27;20088;-74
2022/05/02 07:31:56;;;;;;;3.75;2.55;;;14.30;99.90;;;;;;5138627;27;20045;-74
2022/05/02 07:34:24;;;;;;;4.80;2.70;;;14.40;99.90;;;;;;5142854;27;20118;-74
2022/05/02 07:36:51;;;;;;;4.28;2.65;;;14.60;99.90;;;;;;5118074;27;20042;-73
2022/05/02 07:39:19;;;;;;;2.80;2.33;;;14.50;99.90;;;;;;5145026;27;20038;-74
2022/05/02 07:41:46;;;;;;;4.35;2.67;;;14.60;98.70;;;;;;5145116;27;20060;-74
2022/05/02 07:44:13;;;;;;;3.83;2.30;;;14.70;98.60;;;;;;5135979;27;20397;-74
2022/05/02 07:46:45;;;;;;;3.85;2.55;;;14.90;99.50;;;;;;5102735;27;20054;-74
2022/05/02 07:49:14;;;;;;;4.68;2.75;;;14.90;99.20;;;;;;5139997;27;20031;-74
2022/05/02 07:51:43;;;;;;;4.75;2.55;;;15.00;99.90;;;;;;5137003;27;20673;-75
2022/05/02 07:54:15;;;;;;;3.53;2.47;;;14.90;99.00;;;;;;5124105;27;20031;-75
2022/05/02 07:56:42;;;;;;;3.03;2.08;;;15.00;99.10;;;;;;5145744;27;20062;-75
2022/05/02 07:59:10;;;;;;;3.67;2.13;;;15.20;98.00;;;;;;5132682;27;20468;-74
2022/05/02 08:01:35;;;;;;;5.20;2.80;;;15.10;98.60;;;;;;5123411;27;20041;-74
2022/05/02 08:04:01;;;;;;;4.22;2.70;;;15.10;98.80;;;;;;5138319;27;20389;-74
2022/05/02 08:06:53;;;;;;;6.05;3.20;;;15.20;97.60;;;;;;5144258;27;20039;-75
2022/05/02 08:09:46;;;;;;;5.10;3.03;;;15.10;96.30;;;;;;5129006;27;20034;-75
2022/05/02 08:12:20;;;;;;;4.00;3.00;;;15.20;95.80;;;;;;5146073;27;20043;-74
2022/05/02 08:14:52;;;;;;;3.15;2.30;;;15.10;94.90;;;;;;5139550;27;20070;-74
2022/05/02 08:17:17;;;;;;;2.65;1.88;;;15.30;95.70;;;;;;5142423;27;20165;-74
2022/05/02 08:20:09;;;;;;;2.85;2.00;;;15.40;95.80;;;;;;5145255;27;20023;-74
2022/05/02 08:29:01;;;;;;;3.45;2.10;;;14.90;97.20;;;;;;5144885;27;20448;-73
2022/05/02 08:31:30;;;;;;;2.88;1.77;;;15.20;96.70;;;;;;5087843;27;20113;-74
2022/05/02 08:34:04;;;;;;;3.08;2.03;;;15.20;97.80;;;;;;5142917;27;20031;-74
2022/05/02 08:36:47;;;;;;;3.45;2.17;;;15.40;96.60;;;;;;5143517;27;20121;-74
2022/05/02 08:39:18;;;;;;;4.60;2.60;;;15.60;97.70;;;;;;5127261;27;20057;-74
2022/05/02 08:42:22;;;;;;;4.63;2.50;;;15.70;97.10;;;;;;5149055;27;20046;-74
2022/05/02 08:45:02;;;;;;;2.80;2.30;;;15.90;96.30;;;;;;5126097;27;20062;-73
2022/05/02 08:47:36;;;;;;;2.45;1.92;;;16.10;95.20;;;;;;5147210;27;20927;-73
2022/05/02 08:50:24;;;;;;;3.15;1.80;;;16.30;94.80;;;;;;5147810;27;20046;-74
2022/05/02 08:53:15;;;;;;;3.25;1.90;;;16.10;94.10;;;;;;5144714;27;20103;-75
2022/05/02 08:56:39;;;;;;;3.35;2.20;;;16.20;96.10;;;;;;5104467;27;20042;-74
2022/05/02 08:59:12;;;;;;;2.72;2.20;;;16.30;94.90;;;;;;5056885;27;20080;-75
2022/05/02 09:02:07;;;;;;;3.90;2.30;;;16.60;94.80;;;;;;5144504;27;20491;-75
2022/05/02 09:04:42;;;;;;;2.47;2.17;;;16.70;93.50;;;;;;5144972;27;20138;-75
2022/05/02 09:07:26;;;;;;;2.83;1.80;;;16.60;94.10;;;;;;5143618;27;20042;-75
2022/05/02 09:09:57;;;;;;;3.58;2.45;;;16.20;93.60;;;;;;5138640;27;20103;-74
2022/05/02 09:12:25;;;;;;;2.25;1.85;;;15.50;94.10;;;;;;5126448;27;20354;-75
2022/05/02 09:15:10;;;;;;;2.83;2.30;;;15.60;93.90;;;;;;5140095;27;20486;-74
2022/05/02 09:18:11;;;;;;;3.03;2.50;;;15.50;94.60;;;;;;5141074;27;20268;-74
2022/05/02 09:21:15;;;;;;;2.78;2.00;;;16.00;94.00;;;;;;5138492;27;20572;-75
2022/05/02 09:24:01;;;;;;;3.08;2.40;;;16.50;93.10;;;;;;5136028;27;20055;-74
2022/05/02 09:26:48;;;;;;;5.13;2.88;;;16.90;92.80;;;;;;5143050;27;20677;-74
2022/05/02 09:29:28;;;;;;;;;;;16.90;93.10;;;;;;5142998;27;20458;-74
2022/05/02 09:31:59;;;;;;;3.60;2.70;;;16.80;91.90;;;;;;5132826;27;19980;-77
2022/05/02 09:34:36;;;;;;;3.15;2.10;;;17.00;92.10;;;;;;5146743;27;20175;-77
2022/05/02 09:37:06;;;;;;;2.33;2.10;;;17.30;91.50;;;;;;5137189;27;20043;-76
2022/05/02 09:39:46;;;;;;;3.03;2.10;;;17.40;90.50;;;;;;5139495;27;20047;-77
2022/05/02 09:42:24;;;;;;;3.90;2.50;;;17.60;90.20;;;;;;5135411;27;20058;-75
2022/05/02 09:51:10;;;;;;;2.53;2.22;;;18.20;90.20;;;;;;5133542;27;20121;-71
2022/05/02 09:53:55;;;;;;;2.67;2.20;;;18.30;88.50;;;;;;5132376;27;20398;-74
2022/05/02 09:56:38;;;;;;;3.85;2.58;;;18.10;86.00;;;;;;5131357;27;20039;-74
2022/05/02 09:59:23;;;;;;;4.30;2.90;;;18.30;89.30;;;;;;5134239;27;20107;-74
2022/05/02 10:02:18;;;;;;;3.63;2.55;;;18.20;87.20;;;;;;5138665;27;20050;-74
2022/05/02 10:05:06;;;;;;;3.95;2.60;;;18.00;86.10;;;;;;5131755;27;20073;-75
2022/05/02 10:07:40;;;;;;;3.20;2.60;;;18.20;85.90;;;;;;5132912;27;20118;-74
2022/05/02 10:10:43;;;;;;;3.03;1.95;;;18.00;86.30;;;;;;5114954;27;20074;-74
2022/05/02 10:13:31;;;;;;;3.13;2.28;;;17.80;85.20;;;;;;5022024;28;20047;-74
2022/05/02 10:16:26;;;;;;;3.15;1.90;;;17.10;84.70;;;;;;5113376;27;20137;-75
2022/05/02 10:19:12;;;;;;;5.10;3.42;;;17.10;88.20;;;;;;5141833;27;20088;-75
2022/05/02 10:22:14;;;;;;;5.03;3.72;;;16.70;87.20;;;;;;5137340;27;20069;-74
2022/05/02 10:25:14;;;;;;;5.20;2.92;;;16.70;86.60;;;;;;5137946;27;20047;-74
2022/05/02 10:28:02;;;;;;;4.35;2.70;;;16.70;87.00;;;;;;5143523;27;20129;-75
2022/05/02 10:30:40;;;;;;;5.30;4.22;;;17.40;90.00;;;;;;5139845;27;20043;-72
2022/05/02 10:33:17;;;;;;;9.40;4.68;;;17.10;88.20;;;;;;5131171;27;20493;-72
2022/05/02 10:35:50;;;;;;;3.83;3.30;;;16.50;87.10;;;;;;5137870;27;20493;-72
2022/05/02 10:38:30;;;;;;;4.32;3.40;;;16.20;87.20;;;;;;5147867;27;20054;-71
2022/05/02 10:41:27;;;;;;;4.43;3.00;;;15.70;89.40;;;;;;5130729;27;20477;-72
2022/05/02 10:44:01;;;;;;;5.18;3.60;;;15.50;90.60;;;;;;5140587;27;20577;-72
2022/05/02 10:46:30;;;;;;;3.40;3.00;;;15.10;91.70;;;;;;5139895;27;20150;-72
2022/05/02 10:49:03;;;;;;;4.68;2.95;;;15.00;92.40;;;;;;5141788;27;20034;-72
2022/05/02 10:51:54;;;;;;;7.95;4.78;;;15.30;93.00;;;;;;5142431;27;20041;-71
2022/05/02 10:54:20;;;;;;;4.68;3.50;;;15.70;91.60;;;;;;5140059;27;20043;-71
2022/05/02 10:57:03;;;;;;;4.75;3.20;;;16.20;91.50;;;;;;5124634;27;20366;-71
2022/05/02 10:59:32;;;;;;;5.53;3.13;;;16.80;90.50;;;;;;5148024;27;20034;-71
2022/05/02 11:02:18;;;;;;;2.67;2.17;;;17.30;90.50;;;;;;5132980;27;20169;-72
2022/05/02 11:04:49;;;;;;;4.38;3.50;;;17.90;89.90;;;;;;5132804;27;20069;-71
2022/05/02 11:07:30;;;;;;;4.88;3.35;;;17.60;88.50;;;;;;5121840;27;20042;-76
2022/05/02 11:09:55;;;;;;;2.60;2.00;;;17.80;85.60;;;;;;5146669;27;20045;-76
2022/05/02 11:12:22;;;;;;;;;;;18.40;85.10;;;;;;5121923;27;20126;-75
2022/05/02 11:15:07;;;;;;;2.50;2.28;;;18.70;83.80;;;;;;5140038;27;20001;-74
2022/05/02 11:18:04;;;;;;;3.60;2.30;;;18.10;83.50;;;;;;5140305;27;20055;-75
2022/05/02 11:20:42;;;;;;;3.28;2.55;;;17.80;87.00;;;;;;5134996;27;20141;-74
2022/05/02 11:23:24;;;;;;;4.95;2.80;;;17.50;84.10;;;;;;5135824;27;20550;-75
2022/05/02 11:25:57;;;;;;;4.22;3.10;;;17.00;85.10;;;;;;5127672;27;20481;-74
2022/05/02 11:28:41;;;;;;;6.18;3.25;;;16.40;85.10;;;;;;5145928;27;20051;-74
2022/05/02 11:31:20;;;;;;;4.25;3.22;;;15.80;86.50;;;;;;5130658;27;20077;-75
2022/05/02 11:34:02;;;;;;;2.35;2.10;;;15.50;88.20;;;;;;5134180;27;20043;-75
2022/05/02 11:36:32;;;;;;;1.90;1.60;;;15.70;88.40;;;;;;5132846;27;20046;-75
2022/05/02 11:39:08;;;;;;;4.82;2.65;;;16.50;88.10;;;;;;5134708;27;20039;-75
2022/05/02 11:41:45;;;;;;;3.05;2.13;;;17.20;85.30;;;;;;5116083;27;20144;-75
2022/05/02 11:44:13;;;;;;;4.13;2.75;;;17.70;83.60;;;;;;5136463;27;20047;-74
2022/05/02 11:46:45;;;;;;;4.18;2.67;;;17.60;79.20;;;;;;5116285;27;20082;-74
2022/05/02 11:49:20;;;;;;;4.68;2.22;;;17.70;82.90;;;;;;5133406;27;20072;-74
2022/05/02 11:51:51;;;;;;;2.80;2.50;;;17.90;83.30;;;;;;5117309;27;20031;-74
2022/05/02 11:54:20;;;;;;;3.25;2.15;;;17.70;79.10;;;;;;5133731;27;20035;-75
2022/05/02 11:57:08;;;;;;;3.75;2.42;;;18.30;77.20;;;;;;5141581;27;20742;-75
2022/05/02 11:59:55;;;;;;;3.95;2.60;;;18.50;80.30;;;;;;5124301;27;20039;-75
2022/05/02 12:02:37;;;;;;;4.00;2.40;;;18.10;77.80;;;;;;5131476;27;20043;-74
2022/05/02 12:05:10;;;;;;;3.85;2.33;;;18.30;77.70;;;;;;5133711;27;20157;-75
2022/05/02 12:07:38;;;;;;;3.08;2.25;;;18.20;77.10;;;;;;5133457;27;20051;-76
2022/05/02 12:10:08;;;;;;;3.72;2.45;;;18.10;77.20;;;;;;5141054;27;20430;-74
2022/05/02 12:12:47;;;;;;;2.75;2.25;;;18.40;78.80;;;;;;5138101;27;20114;-75
2022/05/02 12:15:12;;;;;;;5.90;2.50;;;18.30;78.10;;;;;;5138751;27;20050;-76
2022/05/02 12:17:52;;;;;;;;;;;18.40;75.50;;;;;;5118462;27;20047;-75
2022/05/02 12:20:35;;;;;;;3.15;2.15;;;18.40;74.50;;;;;;5131370;27;19921;-72
2022/05/02 12:23:17;;;;;;;5.53;2.42;;;18.30;75.40;;;;;;5146744;27;20409;-72
2022/05/02 12:25:54;;;;;;;3.65;2.70;;;18.30;78.10;;;;;;5135537;27;20047;-72
2022/05/02 12:28:40;;;;;;;3.47;2.55;;;18.00;77.60;;;;;;5133817;27;20540;-72
2022/05/02 12:31:08;;;;;;;6.60;3.30;;;18.10;84.20;;;;;;5120216;27;20042;-72
2022/05/02 12:33:40;;;;;;;3.13;2.55;;;18.10;87.10;;;;;;5140329;27;20047;-71
2022/05/02 12:36:17;;;;;;;3.10;2.50;;;18.80;87.50;;;;;;5120176;27;20050;-71
2022/05/02 12:39:05;;;;;;;2.70;2.03;;;18.80;86.50;;;;;;5135604;27;20046;-72
2022/05/02 12:41:43;;;;;;;3.70;2.35;;;19.30;85.10;;;;;;5136950;27;20196;-71
2022/05/02 12:44:12;;;;;;;4.32;2.58;;;19.10;85.20;;;;;;5145462;27;20494;-72
2022/05/02 12:46:40;;;;;;;3.55;3.08;;;18.40;87.20;;;;;;5146971;27;20043;-72
2022/05/02 12:49:30;;;;;;;3.58;2.67;;;18.10;85.30;;;;;;5146301;27;20042;-72
2022/05/02 12:51:57;;;;;;;4.90;3.30;;;18.60;88.20;;;;;;5150183;27;20047;-72
2022/05/02 12:54:28;;;;;;;3.90;2.92;;;18.20;87.40;;;;;;5137150;27;20486;-72
2022/05/02 13:02:52;;;;;;;4.07;2.42;;;18.10;88.40;;;;;;5133803;27;20758;-76
2022/05/02 13:05:21;;;;;;;3.47;2.42;;;18.20;87.10;;;;;;5136083;27;20397;-76
2022/05/02 13:07:52;;;;;;;3.33;2.47;;;18.40;85.30;;;;;;5132961;27;20026;-72
2022/05/02 13:10:24;;;;;;;2.70;2.00;;;18.50;85.40;;;;;;5138777;27;20086;-73
2022/05/02 13:12:58;;;;;;;5.45;3.10;;;18.70;86.30;;;;;;5132468;27;20449;-72
2022/05/02 13:15:33;;;;;;;5.03;3.47;;;18.40;86.50;;;;;;5143717;27;20462;-72
2022/05/02 13:18:12;;;;;;;5.40;3.25;;;17.80;88.90;;;;;;5140993;27;20444;-73
2022/05/02 13:20:39;;;;;;;3.75;2.35;;;17.80;89.70;;;;;;5134322;27;20057;-72
2022/05/02 13:23:13;;;;;;;3.38;2.60;;;18.20;89.10;;;;;;5142673;27;20045;-72
2022/05/02 13:25:51;;;;;;;5.50;3.67;;;18.40;90.80;;;;;;5144386;27;20135;-72
2022/05/02 13:28:25;;;;;;;4.28;3.15;;;18.10;89.20;;;;;;5145001;27;20409;-72
2022/05/02 13:31:22;;;;;;;3.33;3.03;;;18.20;89.50;;;;;;5141159;27;20067;-72
2022/05/02 13:33:51;;;;;;;3.38;2.40;;;18.00;88.80;;;;;;5135648;27;20077;-72
2022/05/02 13:36:18;;;;;;;4.55;2.20;;;18.40;89.40;;;;;;5140093;27;20068;-72
2022/05/02 13:39:08;;;;;;;4.47;2.67;;;18.60;89.90;;;;;;5145518;27;20099;-72
2022/05/02 13:41:43;;;;;;;3.47;2.50;;;18.50;89.40;;;;;;5154626;27;20046;-72
2022/05/02 13:44:21;;;;;;;3.35;2.80;;;18.40;89.30;;;;;;5141753;27;20045;-72
2022/05/02 13:47:21;;;;;;;4.00;3.10;;;18.20;88.80;;;;;;5141898;27;20039;-72
2022/05/02 13:50:11;;;;;;;5.63;2.80;;;17.80;90.00;;;;;;5084280;27;20190;-72
2022/05/02 13:52:42;;;;;;;4.28;3.00;;;17.90;91.30;;;;;;5146956;27;20440;-72
2022/05/02 13:55:18;;;;;;;2.85;2.28;;;17.80;90.50;;;;;;5142645;27;20417;-72
2022/05/02 13:57:53;;;;;;;3.30;2.47;;;18.30;89.90;;;;;;5130590;27;20431;-72